createdAt,value
2019-03-21T00:00:09.397Z,1028.31
2019-03-21T00:01:09.393Z,1028.28
2019-03-21T00:02:09.370Z,1028.29
2019-03-21T00:03:09.366Z,1028.32
2019-03-21T00:04:09.354Z,1028.32
2019-03-21T00:05:09.332Z,1028.34
2019-03-21T00:06:09.348Z,1028.36
2019-03-21T00:07:09.338Z,1028.35
2019-03-21T00:08:09.309Z,1028.36
2019-03-21T00:09:09.308Z,1028.34
2019-03-21T00:10:09.281Z,1028.36
2019-03-21T00:11:09.276Z,1028.33
2019-03-21T00:12:09.274Z,1028.33
2019-03-21T00:13:09.264Z,1028.39
2019-03-21T00:14:09.245Z,1028.34
2019-03-21T00:15:09.229Z,1028.35
2019-03-21T00:16:09.214Z,1028.38
2019-03-21T00:17:09.210Z,1028.34
2019-03-21T00:18:09.218Z,1028.35
2019-03-21T00:19:09.181Z,1028.36
2019-03-21T00:20:09.170Z,1028.33
2019-03-21T00:21:09.158Z,1028.37
2019-03-21T00:22:09.148Z,1028.34
2019-03-21T00:23:09.136Z,1028.35
2019-03-21T00:24:09.153Z,1028.37
2019-03-21T00:25:09.121Z,1028.34
2019-03-21T00:26:09.116Z,1028.41
2019-03-21T00:27:09.096Z,1028.35
2019-03-21T00:28:09.088Z,1028.33
2019-03-21T00:29:09.070Z,1028.34
2019-03-21T00:30:09.076Z,1028.34
2019-03-21T00:31:09.052Z,1028.32
2019-03-21T00:32:09.039Z,1028.33
2019-03-21T00:33:09.027Z,1028.29
2019-03-21T00:34:09.016Z,1028.35
2019-03-21T00:35:09.006Z,1028.28
2019-03-21T00:36:09.007Z,1028.28
2019-03-21T00:37:08.986Z,1028.23
2019-03-21T00:38:08.991Z,1028.28
2019-03-21T00:39:08.961Z,1028.29
2019-03-21T00:40:08.954Z,1028.27
2019-03-21T00:41:08.939Z,1028.26
2019-03-21T00:42:08.930Z,1028.27
2019-03-21T00:43:08.916Z,1028.29
2019-03-21T00:44:17.800Z,1028.29
2019-03-21T00:45:09.906Z,1028.24
2019-03-21T00:46:08.886Z,1028.25
2019-03-21T00:47:08.873Z,1028.24
2019-03-21T00:48:08.862Z,1028.23
2019-03-21T00:49:08.853Z,1028.27
2019-03-21T00:50:08.856Z,1028.27
2019-03-21T00:51:08.829Z,1028.25
2019-03-21T00:52:08.822Z,1028.25
2019-03-21T00:53:08.808Z,1028.24
2019-03-21T00:54:08.800Z,1028.24
2019-03-21T00:55:08.814Z,1028.26
2019-03-21T00:56:08.778Z,1028.27
2019-03-21T00:57:08.767Z,1028.27
2019-03-21T00:58:08.752Z,1028.27
2019-03-21T00:59:08.740Z,1028.28
2019-03-21T01:00:08.730Z,1028.30
2019-03-21T01:01:08.730Z,1028.31
2019-03-21T01:02:08.710Z,1028.25
2019-03-21T01:03:08.706Z,1028.27
2019-03-21T01:04:08.702Z,1028.30
2019-03-21T01:05:08.693Z,1028.27
2019-03-21T01:06:08.681Z,1028.27
2019-03-21T01:07:08.662Z,1028.25
2019-03-21T01:08:08.644Z,1028.24
2019-03-21T01:09:08.631Z,1028.22
2019-03-21T01:10:08.629Z,1028.21
2019-03-21T01:11:08.609Z,1028.20
2019-03-21T01:12:08.616Z,1028.19
2019-03-21T01:13:08.587Z,1028.17
2019-03-21T01:14:08.574Z,1028.16
2019-03-21T01:15:08.577Z,1028.13
2019-03-21T01:16:08.562Z,1028.11
2019-03-21T01:17:08.544Z,1028.14
2019-03-21T01:18:08.543Z,1028.15
2019-03-21T01:19:08.521Z,1028.09
2019-03-21T01:20:08.509Z,1028.13
2019-03-21T01:21:08.501Z,1028.04
2019-03-21T01:22:08.502Z,1028.01
2019-03-21T01:23:08.492Z,1028.02
2019-03-21T01:24:08.471Z,1028.02
2019-03-21T01:25:08.480Z,1027.99
2019-03-21T01:26:08.447Z,1028.01
2019-03-21T01:27:08.443Z,1028.02
2019-03-21T01:28:08.424Z,1028.01
2019-03-21T01:29:08.415Z,1027.99
2019-03-21T01:30:08.409Z,1027.96
2019-03-21T01:31:08.413Z,1027.97
2019-03-21T01:32:15.989Z,1028.00
2019-03-21T01:33:08.399Z,1027.94
2019-03-21T01:34:08.368Z,1027.93
2019-03-21T01:35:08.351Z,1027.92
2019-03-21T01:36:08.372Z,1027.92
2019-03-21T01:37:08.351Z,1027.89
2019-03-21T01:38:08.374Z,1027.89
2019-03-21T01:39:08.300Z,1027.89
2019-03-21T01:40:08.295Z,1027.88
2019-03-21T01:41:08.288Z,1027.88
2019-03-21T01:42:08.286Z,1027.88
2019-03-21T01:43:08.260Z,1027.89
2019-03-21T01:44:08.249Z,1027.88
2019-03-21T01:45:08.236Z,1027.87
2019-03-21T01:46:08.233Z,1027.87
2019-03-21T01:47:17.245Z,1027.88
2019-03-21T01:48:08.235Z,1027.89
2019-03-21T01:49:15.765Z,1027.87
2019-03-21T01:50:08.228Z,1027.85
2019-03-21T01:51:15.753Z,1027.86
2019-03-21T01:52:08.163Z,1027.85
2019-03-21T01:53:16.828Z,1027.82
2019-03-21T01:54:08.140Z,1027.88
2019-03-21T01:55:15.679Z,1027.82
2019-03-21T01:56:15.722Z,1027.86
2019-03-21T01:57:08.105Z,1027.83
2019-03-21T01:58:08.124Z,1027.85
2019-03-21T01:59:08.108Z,1027.84
2019-03-21T02:00:08.071Z,1027.83
2019-03-21T02:01:08.903Z,1027.82
2019-03-21T02:02:08.050Z,1027.84
2019-03-21T02:03:08.035Z,1027.85
2019-03-21T02:04:08.031Z,1027.88
2019-03-21T02:05:08.043Z,1027.88
2019-03-21T02:06:08.002Z,1027.90
2019-03-21T02:07:07.993Z,1027.87
2019-03-21T02:08:07.998Z,1027.89
2019-03-21T02:09:07.972Z,1027.86
2019-03-21T02:10:07.969Z,1027.82
2019-03-21T02:11:07.963Z,1027.81
2019-03-21T02:12:07.942Z,1027.82
2019-03-21T02:13:07.934Z,1027.78
2019-03-21T02:14:07.932Z,1027.78
2019-03-21T02:15:07.906Z,1027.74
2019-03-21T02:16:07.902Z,1027.76
2019-03-21T02:17:07.899Z,1027.73
2019-03-21T02:18:07.870Z,1027.75
2019-03-21T02:19:07.876Z,1027.75
2019-03-21T02:20:07.850Z,1027.78
2019-03-21T02:21:07.842Z,1027.74
2019-03-21T02:22:07.826Z,1027.73
2019-03-21T02:23:07.825Z,1027.78
2019-03-21T02:24:07.808Z,1027.71
2019-03-21T02:25:07.815Z,1027.71
2019-03-21T02:26:07.784Z,1027.69
2019-03-21T02:27:07.776Z,1027.70
2019-03-21T02:28:07.761Z,1027.64
2019-03-21T02:29:07.753Z,1027.66
2019-03-21T02:30:07.756Z,1027.70
2019-03-21T02:31:07.730Z,1027.70
2019-03-21T02:32:07.727Z,1027.67
2019-03-21T02:33:07.710Z,1027.67
2019-03-21T02:34:07.699Z,1027.64
2019-03-21T02:35:07.696Z,1027.66
2019-03-21T02:36:07.692Z,1027.64
2019-03-21T02:37:07.667Z,1027.67
2019-03-21T02:38:07.666Z,1027.74
2019-03-21T02:39:07.652Z,1027.72
2019-03-21T02:40:07.630Z,1027.68
2019-03-21T02:41:07.647Z,1027.68
2019-03-21T02:42:07.607Z,1027.72
2019-03-21T02:43:07.597Z,1027.65
2019-03-21T02:44:07.585Z,1027.70
2019-03-21T02:45:09.503Z,1027.69
2019-03-21T02:46:07.564Z,1027.68
2019-03-21T02:47:07.573Z,1027.66
2019-03-21T02:48:07.543Z,1027.71
2019-03-21T02:49:07.585Z,1027.67
2019-03-21T02:50:07.526Z,1027.72
2019-03-21T02:51:07.517Z,1027.72
2019-03-21T02:52:07.514Z,1027.74
2019-03-21T02:53:07.494Z,1027.75
2019-03-21T02:54:07.499Z,1027.73
2019-03-21T02:55:07.483Z,1027.70
2019-03-21T02:56:07.460Z,1027.71
2019-03-21T02:57:07.451Z,1027.75
2019-03-21T02:58:07.438Z,1027.75
2019-03-21T02:59:07.459Z,1027.75
2019-03-21T03:00:07.416Z,1027.72
2019-03-21T03:01:07.402Z,1027.72
2019-03-21T03:02:07.394Z,1027.71
2019-03-21T03:03:07.375Z,1027.74
2019-03-21T03:04:07.368Z,1027.74
2019-03-21T03:05:07.374Z,1027.75
2019-03-21T03:06:07.346Z,1027.75
2019-03-21T03:07:07.349Z,1027.75
2019-03-21T03:08:07.329Z,1027.76
2019-03-21T03:09:07.316Z,1027.79
2019-03-21T03:10:07.314Z,1027.75
2019-03-21T03:11:10.653Z,1027.77
2019-03-21T03:12:07.278Z,1027.78
2019-03-21T03:13:07.270Z,1027.79
2019-03-21T03:14:07.257Z,1027.77
2019-03-21T03:15:21.541Z,1027.78
2019-03-21T03:16:08.258Z,1027.76
2019-03-21T03:17:07.222Z,1027.79
2019-03-21T03:18:07.211Z,1027.79
2019-03-21T03:19:07.207Z,1027.78
2019-03-21T03:20:07.191Z,1027.77
2019-03-21T03:21:07.196Z,1027.75
2019-03-21T03:22:07.185Z,1027.77
2019-03-21T03:23:07.157Z,1027.75
2019-03-21T03:24:07.146Z,1027.78
2019-03-21T03:25:07.134Z,1027.73
2019-03-21T03:26:07.124Z,1027.76
2019-03-21T03:27:07.125Z,1027.77
2019-03-21T03:28:07.118Z,1027.76
2019-03-21T03:29:07.093Z,1027.79
2019-03-21T03:30:07.081Z,1027.82
2019-03-21T03:31:07.068Z,1027.81
2019-03-21T03:32:07.092Z,1027.77
2019-03-21T03:33:07.059Z,1027.78
2019-03-21T03:34:07.048Z,1027.81
2019-03-21T03:35:07.061Z,1027.80
2019-03-21T03:36:07.033Z,1027.81
2019-03-21T03:37:07.001Z,1027.81
2019-03-21T03:38:07.028Z,1027.81
2019-03-21T03:39:07.015Z,1027.80
2019-03-21T03:40:06.977Z,1027.84
2019-03-21T03:41:06.983Z,1027.84
2019-03-21T03:42:06.965Z,1027.84
2019-03-21T03:43:06.943Z,1027.85
2019-03-21T03:44:06.927Z,1027.84
2019-03-21T03:45:07.023Z,1027.82
2019-03-21T03:46:06.927Z,1027.91
2019-03-21T03:47:06.908Z,1027.81
2019-03-21T03:48:06.889Z,1027.88
2019-03-21T03:49:06.873Z,1027.86
2019-03-21T03:50:06.862Z,1027.82
2019-03-21T03:51:06.863Z,1027.85
2019-03-21T03:52:06.845Z,1027.79
2019-03-21T03:53:06.850Z,1027.81
2019-03-21T03:54:06.818Z,1027.78
2019-03-21T03:55:06.808Z,1027.78
2019-03-21T03:56:06.794Z,1027.77
2019-03-21T03:57:06.801Z,1027.76
2019-03-21T03:58:06.776Z,1027.74
2019-03-21T03:59:06.781Z,1027.73
2019-03-21T04:00:06.750Z,1027.76
2019-03-21T04:01:06.743Z,1027.76
2019-03-21T04:02:06.762Z,1027.76
2019-03-21T04:03:06.748Z,1027.74
2019-03-21T04:04:06.714Z,1027.78
2019-03-21T04:05:06.721Z,1027.79
2019-03-21T04:06:06.687Z,1027.80
2019-03-21T04:07:06.682Z,1027.79
2019-03-21T04:08:06.666Z,1027.83
2019-03-21T04:09:06.651Z,1027.82
2019-03-21T04:10:06.658Z,1027.84
2019-03-21T04:11:06.631Z,1027.81
2019-03-21T04:12:06.618Z,1027.80
2019-03-21T04:13:06.612Z,1027.79
2019-03-21T04:14:06.612Z,1027.76
2019-03-21T04:15:06.587Z,1027.82
2019-03-21T04:16:06.588Z,1027.77
2019-03-21T04:17:06.579Z,1027.79
2019-03-21T04:18:06.553Z,1027.82
2019-03-21T04:19:06.542Z,1027.81
2019-03-21T04:20:06.543Z,1027.83
2019-03-21T04:21:06.543Z,1027.87
2019-03-21T04:22:06.515Z,1027.90
2019-03-21T04:23:06.518Z,1027.90
2019-03-21T04:24:06.495Z,1027.92
2019-03-21T04:25:06.480Z,1027.89
2019-03-21T04:26:06.489Z,1027.93
2019-03-21T04:27:06.484Z,1027.95
2019-03-21T04:28:06.443Z,1027.87
2019-03-21T04:29:06.429Z,1027.92
2019-03-21T04:30:06.423Z,1027.91
2019-03-21T04:31:06.408Z,1027.87
2019-03-21T04:32:06.407Z,1027.88
2019-03-21T04:33:06.427Z,1027.87
2019-03-21T04:34:06.375Z,1027.86
2019-03-21T04:35:06.365Z,1027.86
2019-03-21T04:36:06.355Z,1027.85
2019-03-21T04:37:06.346Z,1027.83
2019-03-21T04:38:06.332Z,1027.84
2019-03-21T04:39:06.341Z,1027.81
2019-03-21T04:40:06.328Z,1027.82
2019-03-21T04:41:06.299Z,1027.79
2019-03-21T04:42:06.291Z,1027.77
2019-03-21T04:43:06.277Z,1027.80
2019-03-21T04:44:06.288Z,1027.82
2019-03-21T04:45:06.255Z,1027.80
2019-03-21T04:46:06.271Z,1027.77
2019-03-21T04:47:06.236Z,1027.79
2019-03-21T04:48:06.241Z,1027.83
2019-03-21T04:49:06.254Z,1027.87
2019-03-21T04:50:06.209Z,1027.83
2019-03-21T04:51:06.192Z,1027.82
2019-03-21T04:52:06.179Z,1027.85
2019-03-21T04:53:06.193Z,1027.84
2019-03-21T04:54:06.166Z,1027.88
2019-03-21T04:55:06.173Z,1027.86
2019-03-21T04:56:06.151Z,1027.89
2019-03-21T04:57:06.125Z,1027.90
2019-03-21T04:58:06.115Z,1027.90
2019-03-21T04:59:06.108Z,1027.85
2019-03-21T05:00:06.094Z,1027.90
2019-03-21T05:01:06.096Z,1027.85
2019-03-21T05:02:06.088Z,1027.86
2019-03-21T05:03:06.058Z,1027.85
2019-03-21T05:04:06.050Z,1027.84
2019-03-21T05:05:06.044Z,1027.85
2019-03-21T05:06:06.042Z,1027.82
2019-03-21T05:07:06.035Z,1027.83
2019-03-21T05:08:06.007Z,1027.82
2019-03-21T05:09:05.990Z,1027.84
2019-03-21T05:10:05.987Z,1027.85
2019-03-21T05:11:05.971Z,1027.86
2019-03-21T05:12:05.976Z,1027.84
2019-03-21T05:13:05.963Z,1027.87
2019-03-21T05:14:05.954Z,1027.87
2019-03-21T05:15:05.924Z,1027.87
2019-03-21T05:16:14.269Z,1027.84
2019-03-21T05:17:06.908Z,1027.90
2019-03-21T05:18:05.908Z,1027.85
2019-03-21T05:19:05.886Z,1027.88
2019-03-21T05:20:05.886Z,1027.90
2019-03-21T05:21:05.859Z,1027.93
2019-03-21T05:22:05.850Z,1027.90
2019-03-21T05:23:05.846Z,1027.92
2019-03-21T05:24:05.833Z,1027.90
2019-03-21T05:25:05.845Z,1027.90
2019-03-21T05:26:05.804Z,1027.92
2019-03-21T05:27:05.793Z,1027.90
2019-03-21T05:28:05.781Z,1027.96
2019-03-21T05:29:05.779Z,1027.96
2019-03-21T05:30:05.760Z,1027.95
2019-03-21T05:31:05.793Z,1027.96
2019-03-21T05:32:05.749Z,1027.97
2019-03-21T05:33:05.748Z,1028.00
2019-03-21T05:34:05.717Z,1028.02
2019-03-21T05:35:05.709Z,1027.98
2019-03-21T05:36:05.696Z,1028.03
2019-03-21T05:37:05.695Z,1028.03
2019-03-21T05:38:05.681Z,1028.04
2019-03-21T05:39:05.664Z,1028.06
2019-03-21T05:40:05.655Z,1028.06
2019-03-21T05:41:05.650Z,1028.02
2019-03-21T05:42:05.666Z,1028.08
2019-03-21T05:43:05.624Z,1028.07
2019-03-21T05:44:05.613Z,1028.06
2019-03-21T05:45:05.595Z,1028.07
2019-03-21T05:46:05.587Z,1028.09
2019-03-21T05:47:05.587Z,1028.10
2019-03-21T05:48:05.565Z,1028.10
2019-03-21T05:49:05.585Z,1028.08
2019-03-21T05:50:05.547Z,1028.06
2019-03-21T05:51:05.541Z,1028.04
2019-03-21T05:52:05.530Z,1028.03
2019-03-21T05:53:05.508Z,1028.02
2019-03-21T05:54:05.508Z,1028.02
2019-03-21T05:55:05.485Z,1028.10
2019-03-21T05:56:05.474Z,1028.05
2019-03-21T05:57:05.463Z,1028.05
2019-03-21T05:58:05.471Z,1028.10
2019-03-21T05:59:05.449Z,1028.12
2019-03-21T06:00:05.446Z,1028.13
2019-03-21T06:01:05.422Z,1028.15
2019-03-21T06:02:05.408Z,1028.14
2019-03-21T06:03:05.397Z,1028.15
2019-03-21T06:04:05.432Z,1028.15
2019-03-21T06:05:05.391Z,1028.19
2019-03-21T06:06:05.364Z,1028.19
2019-03-21T06:07:05.355Z,1028.17
2019-03-21T06:08:05.341Z,1028.21
2019-03-21T06:09:05.330Z,1028.19
2019-03-21T06:10:05.335Z,1028.21
2019-03-21T06:11:05.327Z,1028.19
2019-03-21T06:12:05.319Z,1028.24
2019-03-21T06:13:05.292Z,1028.23
2019-03-21T06:14:05.279Z,1028.24
2019-03-21T06:15:05.269Z,1028.26
2019-03-21T06:16:05.256Z,1028.27
2019-03-21T06:17:05.261Z,1028.29
2019-03-21T06:18:05.233Z,1028.27
2019-03-21T06:19:05.227Z,1028.31
2019-03-21T06:20:05.218Z,1028.31
2019-03-21T06:21:05.218Z,1028.33
2019-03-21T06:22:05.213Z,1028.34
2019-03-21T06:23:05.197Z,1028.34
2019-03-21T06:24:05.166Z,1028.37
2019-03-21T06:25:05.264Z,1028.34
2019-03-21T06:26:05.154Z,1028.33
2019-03-21T06:27:13.975Z,1028.39
2019-03-21T06:28:06.138Z,1028.42
2019-03-21T06:29:05.115Z,1028.43
2019-03-21T06:30:05.144Z,1028.46
2019-03-21T06:31:05.089Z,1028.44
2019-03-21T06:32:05.086Z,1028.40
2019-03-21T06:33:05.086Z,1028.43
2019-03-21T06:34:05.075Z,1028.38
2019-03-21T06:35:05.047Z,1028.41
2019-03-21T06:36:05.036Z,1028.44
2019-03-21T06:37:05.025Z,1028.42
2019-03-21T06:38:05.019Z,1028.40
2019-03-21T06:39:05.002Z,1028.42
2019-03-21T06:40:05.015Z,1028.42
2019-03-21T06:41:04.990Z,1028.44
2019-03-21T06:42:04.978Z,1028.39
2019-03-21T06:43:04.970Z,1028.47
2019-03-21T06:44:04.959Z,1028.42
2019-03-21T06:45:04.937Z,1028.44
2019-03-21T06:46:04.936Z,1028.38
2019-03-21T06:47:04.916Z,1028.40
2019-03-21T06:48:04.906Z,1028.39
2019-03-21T06:49:04.892Z,1028.38
2019-03-21T06:50:04.933Z,1028.42
2019-03-21T06:51:04.887Z,1028.45
2019-03-21T06:52:04.861Z,1028.48
2019-03-21T06:53:04.850Z,1028.46
2019-03-21T06:54:04.838Z,1028.47
2019-03-21T06:55:04.826Z,1028.46
2019-03-21T06:56:04.838Z,1028.46
2019-03-21T06:57:04.818Z,1028.46
2019-03-21T06:58:04.796Z,1028.44
2019-03-21T06:59:04.784Z,1028.48
2019-03-21T07:00:04.841Z,1028.49
2019-03-21T07:01:04.759Z,1028.46
2019-03-21T07:02:04.773Z,1028.48
2019-03-21T07:03:04.802Z,1028.51
2019-03-21T07:04:07.462Z,1028.51
2019-03-21T07:05:04.736Z,1028.57
2019-03-21T07:06:04.709Z,1028.57
2019-03-21T07:07:08.408Z,1028.59
2019-03-21T07:08:04.686Z,1028.52
2019-03-21T07:09:04.675Z,1028.55
2019-03-21T07:10:04.704Z,1028.48
2019-03-21T07:11:04.658Z,1028.51
2019-03-21T07:12:04.642Z,1028.57
2019-03-21T07:13:04.649Z,1028.48
2019-03-21T07:14:04.617Z,1028.52
2019-03-21T07:15:04.669Z,1028.47
2019-03-21T07:16:04.621Z,1028.50
2019-03-21T07:17:04.591Z,1028.47
2019-03-21T07:18:04.574Z,1028.48
2019-03-21T07:19:04.578Z,1028.46
2019-03-21T07:20:04.551Z,1028.46
2019-03-21T07:21:04.563Z,1028.47
2019-03-21T07:22:04.529Z,1028.55
2019-03-21T07:23:04.540Z,1028.51
2019-03-21T07:24:04.515Z,1028.59
2019-03-21T07:25:04.498Z,1028.53
2019-03-21T07:26:06.639Z,1028.50
2019-03-21T07:27:04.489Z,1028.54
2019-03-21T07:28:04.467Z,1028.55
2019-03-21T07:29:04.470Z,1028.57
2019-03-21T07:30:04.464Z,1028.60
2019-03-21T07:31:04.436Z,1028.65
2019-03-21T07:32:11.979Z,1028.57
2019-03-21T07:33:04.407Z,1028.58
2019-03-21T07:34:04.407Z,1028.57
2019-03-21T07:35:04.385Z,1028.54
2019-03-21T07:36:04.380Z,1028.62
2019-03-21T07:37:04.368Z,1028.56
2019-03-21T07:38:04.365Z,1028.57
2019-03-21T07:39:04.357Z,1028.63
2019-03-21T07:40:04.343Z,1028.65
2019-03-21T07:41:04.321Z,1028.57
2019-03-21T07:42:04.314Z,1028.65
2019-03-21T07:43:04.306Z,1028.62
2019-03-21T07:44:04.308Z,1028.63
2019-03-21T07:45:04.294Z,1028.57
2019-03-21T07:46:04.285Z,1028.51
2019-03-21T07:47:12.895Z,1028.58
2019-03-21T07:48:05.453Z,1028.60
2019-03-21T07:49:04.231Z,1028.57
2019-03-21T07:50:04.225Z,1028.58
2019-03-21T07:51:04.230Z,1028.63
2019-03-21T07:52:04.199Z,1028.64
2019-03-21T07:53:04.191Z,1028.64
2019-03-21T07:54:04.178Z,1028.65
2019-03-21T07:55:04.183Z,1028.57
2019-03-21T07:56:04.165Z,1028.62
2019-03-21T07:57:04.183Z,1028.52
2019-03-21T07:58:04.142Z,1028.58
2019-03-21T07:59:04.123Z,1028.52
2019-03-21T08:00:04.118Z,1028.55
2019-03-21T08:01:04.120Z,1028.50
2019-03-21T08:02:04.086Z,1028.53
2019-03-21T08:03:04.094Z,1028.55
2019-03-21T08:04:04.071Z,1028.49
2019-03-21T08:05:04.078Z,1028.51
2019-03-21T08:06:04.066Z,1028.52
2019-03-21T08:07:04.031Z,1028.55
2019-03-21T08:08:04.021Z,1028.52
2019-03-21T08:09:04.029Z,1028.55
2019-03-21T08:10:04.003Z,1028.54
2019-03-21T08:11:03.986Z,1028.54
2019-03-21T08:12:03.989Z,1028.50
2019-03-21T08:13:03.966Z,1028.56
2019-03-21T08:14:03.972Z,1028.55
2019-03-21T08:15:03.945Z,1028.57
2019-03-21T08:16:03.946Z,1028.57
2019-03-21T08:17:03.925Z,1028.54
2019-03-21T08:18:03.916Z,1028.53
2019-03-21T08:19:03.900Z,1028.56
2019-03-21T08:20:03.900Z,1028.52
2019-03-21T08:21:03.889Z,1028.51
2019-03-21T08:22:03.886Z,1028.51
2019-03-21T08:23:03.855Z,1028.52
2019-03-21T08:24:03.859Z,1028.49
2019-03-21T08:25:03.867Z,1028.49
2019-03-21T08:26:03.826Z,1028.53
2019-03-21T08:27:03.827Z,1028.53
2019-03-21T08:28:03.796Z,1028.49
2019-03-21T08:29:03.797Z,1028.50
2019-03-21T08:30:03.777Z,1028.51
2019-03-21T08:31:03.768Z,1028.51
2019-03-21T08:32:03.775Z,1028.53
2019-03-21T08:33:03.777Z,1028.51
2019-03-21T08:34:03.738Z,1028.56
2019-03-21T08:35:03.729Z,1028.60
2019-03-21T08:36:03.710Z,1028.54
2019-03-21T08:37:03.699Z,1028.53
2019-03-21T08:38:03.707Z,1028.57
2019-03-21T08:39:03.675Z,1028.55
2019-03-21T08:40:03.672Z,1028.53
2019-03-21T08:41:03.693Z,1028.50
2019-03-21T08:42:03.647Z,1028.52
2019-03-21T08:43:03.642Z,1028.55
2019-03-21T08:44:03.635Z,1028.51
2019-03-21T08:45:03.613Z,1028.53
2019-03-21T08:46:03.610Z,1028.56
2019-03-21T08:47:03.592Z,1028.57
2019-03-21T08:48:03.576Z,1028.58
2019-03-21T08:49:03.579Z,1028.57
2019-03-21T08:50:03.560Z,1028.55
2019-03-21T08:51:08.153Z,1028.57
2019-03-21T08:52:04.532Z,1028.53
2019-03-21T08:53:03.520Z,1028.55
2019-03-21T08:54:03.574Z,1028.54
2019-03-21T08:55:03.519Z,1028.58
2019-03-21T08:56:03.486Z,1028.58
2019-03-21T08:57:03.486Z,1028.59
2019-03-21T08:58:03.465Z,1028.58
2019-03-21T08:59:03.453Z,1028.61
2019-03-21T09:00:03.495Z,1028.65
2019-03-21T09:01:03.453Z,1028.60
2019-03-21T09:02:03.417Z,1028.63
2019-03-21T09:03:03.407Z,1028.60
2019-03-21T09:04:03.400Z,1028.63
2019-03-21T09:05:03.395Z,1028.64
2019-03-21T09:06:03.398Z,1028.67
2019-03-21T09:07:03.364Z,1028.63
2019-03-21T09:08:03.351Z,1028.60
2019-03-21T09:09:03.340Z,1028.63
2019-03-21T09:10:03.333Z,1028.64
2019-03-21T09:11:03.329Z,1028.64
2019-03-21T09:12:03.321Z,1028.64
2019-03-21T09:13:03.307Z,1028.65
2019-03-21T09:14:03.283Z,1028.64
2019-03-21T09:15:03.274Z,1028.64
2019-03-21T09:16:03.263Z,1028.67
2019-03-21T09:17:03.250Z,1028.63
2019-03-21T09:18:03.251Z,1028.61
2019-03-21T09:19:03.248Z,1028.58
2019-03-21T09:20:03.218Z,1028.59
2019-03-21T09:21:03.206Z,1028.62
2019-03-21T09:22:03.196Z,1028.59
2019-03-21T09:23:03.204Z,1028.63
2019-03-21T09:24:03.175Z,1028.62
2019-03-21T09:25:04.751Z,1028.65
2019-03-21T09:26:03.155Z,1028.60
2019-03-21T09:27:03.143Z,1028.60
2019-03-21T09:28:03.249Z,1028.58
2019-03-21T09:29:03.128Z,1028.61
2019-03-21T09:30:03.108Z,1028.57
2019-03-21T09:31:03.099Z,1028.62
2019-03-21T09:32:03.093Z,1028.60
2019-03-21T09:33:03.085Z,1028.66
2019-03-21T09:34:03.095Z,1028.65
2019-03-21T09:35:03.050Z,1028.65
2019-03-21T09:36:03.041Z,1028.61
2019-03-21T09:37:04.176Z,1028.65
2019-03-21T09:38:03.022Z,1028.59
2019-03-21T09:39:03.030Z,1028.64
2019-03-21T09:40:03.013Z,1028.61
2019-03-21T09:41:02.988Z,1028.65
2019-03-21T09:42:02.993Z,1028.61
2019-03-21T09:43:03.383Z,1028.61
2019-03-21T09:44:02.966Z,1028.61
2019-03-21T09:45:02.942Z,1028.61
2019-03-21T09:46:02.947Z,1028.63
2019-03-21T09:47:02.928Z,1028.58
2019-03-21T09:48:02.909Z,1028.55
2019-03-21T09:49:02.897Z,1028.57
2019-03-21T09:50:02.898Z,1028.58
2019-03-21T09:51:02.891Z,1028.60
2019-03-21T09:52:02.869Z,1028.57
2019-03-21T09:53:02.868Z,1028.56
2019-03-21T09:54:09.653Z,1028.59
2019-03-21T09:55:03.830Z,1028.56
2019-03-21T09:56:02.840Z,1028.56
2019-03-21T09:57:02.811Z,1028.52
2019-03-21T09:58:02.804Z,1028.56
2019-03-21T09:59:02.800Z,1028.57
2019-03-21T10:00:02.780Z,1028.60
2019-03-21T10:01:02.767Z,1028.59
2019-03-21T10:02:02.841Z,1028.59
2019-03-21T10:03:02.747Z,1028.59
2019-03-21T10:04:02.737Z,1028.63
2019-03-21T10:05:02.783Z,1028.64
2019-03-21T10:06:02.709Z,1028.59
2019-03-21T10:07:02.698Z,1028.59
2019-03-21T10:08:02.702Z,1028.57
2019-03-21T10:09:02.678Z,1028.64
2019-03-21T10:10:02.681Z,1028.61
2019-03-21T10:11:02.651Z,1028.62
2019-03-21T10:12:02.638Z,1028.57
2019-03-21T10:13:02.666Z,1028.61
2019-03-21T10:14:02.628Z,1028.57
2019-03-21T10:15:02.616Z,1028.60
2019-03-21T10:16:02.611Z,1028.56
2019-03-21T10:17:02.591Z,1028.60
2019-03-21T10:18:02.588Z,1028.58
2019-03-21T10:19:02.588Z,1028.61
2019-03-21T10:20:02.555Z,1028.63
2019-03-21T10:21:02.558Z,1028.56
2019-03-21T10:22:02.529Z,1028.59
2019-03-21T10:23:02.548Z,1028.55
2019-03-21T10:24:02.523Z,1028.59
2019-03-21T10:25:02.499Z,1028.58
2019-03-21T10:26:02.497Z,1028.59
2019-03-21T10:27:02.503Z,1028.59
2019-03-21T10:28:02.474Z,1028.57
2019-03-21T10:29:02.476Z,1028.56
2019-03-21T10:30:02.440Z,1028.58
2019-03-21T10:31:02.442Z,1028.58
2019-03-21T10:32:13.667Z,1028.53
2019-03-21T10:33:03.409Z,1028.55
2019-03-21T10:34:02.405Z,1028.59
2019-03-21T10:35:02.403Z,1028.55
2019-03-21T10:36:02.395Z,1028.54
2019-03-21T10:37:02.367Z,1028.58
2019-03-21T10:38:02.360Z,1028.56
2019-03-21T10:39:02.352Z,1028.59
2019-03-21T10:40:02.331Z,1028.55
2019-03-21T10:41:02.334Z,1028.51
2019-03-21T10:42:02.311Z,1028.50
2019-03-21T10:43:02.306Z,1028.55
2019-03-21T10:44:02.291Z,1028.58
2019-03-21T10:45:02.284Z,1028.54
2019-03-21T10:46:02.292Z,1028.61
2019-03-21T10:47:02.275Z,1028.52
2019-03-21T10:48:02.245Z,1028.49
2019-03-21T10:49:02.246Z,1028.56
2019-03-21T10:50:02.221Z,1028.64
2019-03-21T10:51:02.234Z,1028.64
2019-03-21T10:52:02.214Z,1028.61
2019-03-21T10:53:02.193Z,1028.63
2019-03-21T10:54:02.201Z,1028.54
2019-03-21T10:55:02.172Z,1028.61
2019-03-21T10:56:02.171Z,1028.60
2019-03-21T10:57:02.199Z,1028.62
2019-03-21T10:58:02.137Z,1028.53
2019-03-21T10:59:02.127Z,1028.54
2019-03-21T11:00:02.434Z,1028.53
2019-03-21T11:01:02.102Z,1028.47
2019-03-21T11:02:07.334Z,1028.53
2019-03-21T11:03:03.089Z,1028.57
2019-03-21T11:04:02.076Z,1028.63
2019-03-21T11:05:02.075Z,1028.62
2019-03-21T11:06:02.068Z,1028.62
2019-03-21T11:07:02.037Z,1028.62
2019-03-21T11:08:02.040Z,1028.65
2019-03-21T11:09:02.019Z,1028.62
2019-03-21T11:10:02.010Z,1028.57
2019-03-21T11:11:02.013Z,1028.56
2019-03-21T11:12:01.994Z,1028.49
2019-03-21T11:13:01.978Z,1028.45
2019-03-21T11:14:01.968Z,1028.46
2019-03-21T11:15:01.953Z,1028.45
2019-03-21T11:16:01.948Z,1028.47
2019-03-21T11:17:02.019Z,1028.48
2019-03-21T11:18:01.937Z,1028.47
2019-03-21T11:19:01.902Z,1028.47
2019-03-21T11:20:01.896Z,1028.48
2019-03-21T11:21:01.894Z,1028.36
2019-03-21T11:22:06.288Z,1028.47
2019-03-21T11:23:01.883Z,1028.40
2019-03-21T11:24:01.858Z,1028.43
2019-03-21T11:25:01.835Z,1028.43
2019-03-21T11:26:01.827Z,1028.44
2019-03-21T11:27:01.818Z,1028.42
2019-03-21T11:28:01.865Z,1028.38
2019-03-21T11:29:01.817Z,1028.41
2019-03-21T11:30:01.786Z,1028.38
2019-03-21T11:31:01.770Z,1028.38
2019-03-21T11:32:01.773Z,1028.41
2019-03-21T11:33:01.753Z,1028.42
2019-03-21T11:34:01.758Z,1028.40
2019-03-21T11:35:01.726Z,1028.41
2019-03-21T11:36:01.727Z,1028.41
2019-03-21T11:37:01.703Z,1028.38
2019-03-21T11:38:01.694Z,1028.39
2019-03-21T11:39:01.744Z,1028.37
2019-03-21T11:40:01.692Z,1028.41
2019-03-21T11:41:01.663Z,1028.35
2019-03-21T11:42:01.650Z,1028.37
2019-03-21T11:43:01.644Z,1028.39
2019-03-21T11:44:01.633Z,1028.33
2019-03-21T11:45:01.658Z,1028.35
2019-03-21T11:46:01.619Z,1028.32
2019-03-21T11:47:01.612Z,1028.39
2019-03-21T11:48:01.586Z,1028.35
2019-03-21T11:49:01.598Z,1028.31
2019-03-21T11:50:01.573Z,1028.31
2019-03-21T11:51:01.565Z,1028.34
2019-03-21T11:52:01.563Z,1028.32
2019-03-21T11:53:01.530Z,1028.24
2019-03-21T11:54:01.525Z,1028.26
2019-03-21T11:55:01.524Z,1028.24
2019-03-21T11:56:01.497Z,1028.23
2019-03-21T11:57:01.493Z,1028.19
2019-03-21T11:58:01.486Z,1028.21
2019-03-21T11:59:01.461Z,1028.18
2019-03-21T12:00:01.453Z,1028.17
2019-03-21T12:01:01.438Z,1028.16
2019-03-21T12:02:01.443Z,1028.20
2019-03-21T12:03:04.030Z,1028.11
2019-03-21T12:04:01.409Z,1028.10
2019-03-21T12:05:01.403Z,1028.11